Time;durP1;ratioP1;P1;durP2;ratioP2;P2;SDS_P1;SDS_P2;PMS_P1;PMS_P2;Temp;Humidity;BMP_temperature;BMP_pressure;BME280_temperature;BME280_humidity;BME280_pressure;Samples;Min_cycle;Max_cycle;Signal;HPM_P1;HPM_P2
2022/09/22 00:05:17;;;;;;;;;;;9.20;99.90;;;;;;12480785;28;19936;-85
2022/09/22 00:11:20;;;;;;;;;;;9.10;99.90;;;;;;12464101;28;19925;-85
2022/09/22 00:17:22;;;;;;;;;;;9.00;99.90;;;;;;12479922;28;19934;-85
2022/09/22 00:23:24;;;;;;;;;;;8.90;99.90;;;;;;12459828;28;19925;-85
2022/09/22 00:29:27;;;;;;;;;;;8.70;99.90;;;;;;12472863;28;19935;-85
2022/09/22 00:35:29;;;;;;;;;;;8.80;99.90;;;;;;12465070;28;20288;-85
2022/09/22 00:41:34;;;;;;;;;;;8.80;99.90;;;;;;12490446;28;19926;-85
2022/09/22 00:47:38;;;;;;;;;;;8.70;99.90;;;;;;12478587;28;19933;-85
2022/09/22 00:53:40;;;;;;;;;;;8.60;99.90;;;;;;12473288;28;20293;-85
2022/09/22 00:59:43;;;;;;;;;;;8.50;99.90;;;;;;12465512;28;19936;-85
2022/09/22 01:05:46;;;;;;;;;;;8.50;99.90;;;;;;12464837;28;19929;-85
2022/09/22 01:11:48;;;;;;;;;;;8.40;99.90;;;;;;12469978;28;19925;-85
2022/09/22 01:17:56;;;;;;;;;;;8.40;99.90;;;;;;12471143;28;19929;-85
2022/09/22 01:24:06;;;;;;;;;;;8.50;99.90;;;;;;12489526;28;19934;-85
2022/09/22 01:30:43;;;;;;;;;;;8.50;99.90;;;;;;12467950;28;19925;-85
2022/09/22 01:36:48;;;;;;;;;;;8.40;99.90;;;;;;12440371;28;19940;-85
2022/09/22 01:42:52;;;;;;;;;;;8.40;99.90;;;;;;12452645;28;19929;-85
2022/09/22 01:48:55;;;;;;;;;;;8.30;99.90;;;;;;12470935;28;20281;-85
2022/09/22 01:55:00;;;;;;;;;;;8.20;99.90;;;;;;12467864;28;19933;-85
2022/09/22 02:01:12;;;;;;;;;;;8.20;99.90;;;;;;12477761;28;19929;-85
2022/09/22 02:07:27;;;;;;;;;;;8.00;99.90;;;;;;12476206;28;21080;-85
2022/09/22 02:13:29;;;;;;;;;;;8.10;99.90;;;;;;12496040;28;19933;-85
2022/09/22 02:19:37;;;;;;;;;;;8.10;99.90;;;;;;12475043;28;19932;-85
2022/09/22 02:25:40;;;;;;;;;;;8.10;99.90;;;;;;12468874;28;19932;-85
2022/09/22 02:31:42;;;;;;;;;;;8.00;99.90;;;;;;12472986;28;19988;-85
2022/09/22 02:37:48;;;;;;;;;;;7.90;99.90;;;;;;12490136;28;19932;-85
2022/09/22 02:43:53;;;;;;;;;;;7.90;99.90;;;;;;12480312;28;19925;-85
2022/09/22 02:49:55;;;;;;;;;;;7.90;99.90;;;;;;12482062;28;20296;-85
2022/09/22 02:55:57;;;;;;;;;;;7.90;99.90;;;;;;12488596;28;19930;-85
2022/09/22 03:01:59;;;;;;;;;;;7.90;99.90;;;;;;12480343;28;19932;-85
2022/09/22 03:08:01;;;;;;;;;;;7.70;99.90;;;;;;12487874;28;19979;-85
2022/09/22 03:14:03;;;;;;;;;;;7.70;99.90;;;;;;12477576;28;19929;-85
2022/09/22 03:20:05;;;;;;;;;;;7.80;99.90;;;;;;12482111;28;20293;-85
2022/09/22 03:26:07;;;;;;;;;;;7.70;99.90;;;;;;12480445;28;19929;-85
2022/09/22 03:32:08;;;;;;;;;;;7.70;99.90;;;;;;12457325;28;19932;-85
2022/09/22 03:38:10;;;;;;;;;;;7.70;99.90;;;;;;12473848;28;20368;-85
2022/09/22 03:44:12;;;;;;;;;;;7.60;99.90;;;;;;12478071;28;19976;-85
2022/09/22 03:50:13;;;;;;;;;;;7.70;99.90;;;;;;12472299;28;19932;-85
2022/09/22 03:56:15;;;;;;;;;;;7.60;99.90;;;;;;12468408;28;19929;-85
2022/09/22 04:02:17;;;;;;;;;;;7.50;99.90;;;;;;12458714;28;19929;-85
2022/09/22 04:08:19;;;;;;;;;;;7.50;99.90;;;;;;12465493;28;19933;-85
2022/09/22 04:14:20;;;;;;;;;;;7.50;99.90;;;;;;12463731;28;20377;-85
2022/09/22 04:20:22;;;;;;;;;;;7.50;99.90;;;;;;12479596;28;19933;-85
2022/09/22 04:26:24;;;;;;;;;;;7.50;99.90;;;;;;12468510;28;19925;-85
2022/09/22 04:32:25;;;;;;;;;;;7.30;99.90;;;;;;12465611;28;19925;-85
2022/09/22 04:38:27;;;;;;;;;;;7.30;99.90;;;;;;12462016;28;19934;-85
2022/09/22 04:44:29;;;;;;;;;;;7.20;99.90;;;;;;12475822;28;19932;-85
2022/09/22 04:50:35;;;;;;;;;;;7.10;99.90;;;;;;12475332;28;19932;-85
2022/09/22 04:56:37;;;;;;;;;;;6.90;99.90;;;;;;12470985;28;19930;-85
2022/09/22 05:02:38;;;;;;;;;;;6.90;99.90;;;;;;12460623;28;19925;-85
2022/09/22 05:08:40;;;;;;;;;;;7.00;99.90;;;;;;12468460;28;19968;-85
2022/09/22 05:14:42;;;;;;;;;;;7.10;99.90;;;;;;12470557;28;19926;-85
2022/09/22 05:20:44;;;;;;;;;;;7.10;99.90;;;;;;12477138;28;19932;-85
2022/09/22 05:26:46;;;;;;;;;;;7.10;99.90;;;;;;12464111;28;19932;-86
2022/09/22 05:32:48;;;;;;;;;;;7.00;99.90;;;;;;12463543;28;19974;-87
2022/09/22 05:38:50;;;;;;;;;;;7.00;99.90;;;;;;12458743;28;20372;-86
2022/09/22 05:44:52;;;;;;;;;;;7.00;99.90;;;;;;12473329;28;19925;-86
2022/09/22 05:50:53;;;;;;;;;;;7.00;99.90;;;;;;12469018;28;19925;-86
2022/09/22 05:56:55;;;;;;;;;;;7.10;99.90;;;;;;12474160;28;20265;-85
2022/09/22 06:02:57;;;;;;;;;;;7.10;99.90;;;;;;12477663;28;19933;-85
2022/09/22 06:08:59;;;;;;;;;;;7.10;99.90;;;;;;12477335;28;19931;-86
2022/09/22 06:15:00;;;;;;;;;;;7.30;99.90;;;;;;12461086;28;19925;-86
2022/09/22 06:21:02;;;;;;;;;;;7.30;99.90;;;;;;12479365;28;19936;-85
2022/09/22 06:27:04;;;;;;;;;;;7.50;99.90;;;;;;12475321;28;19936;-86
2022/09/22 06:33:06;;;;;;;;;;;7.50;99.90;;;;;;12474427;28;19925;-86
2022/09/22 06:39:09;;;;;;;;;;;7.60;99.90;;;;;;12532255;28;19924;-86
2022/09/22 06:45:11;;;;;;;;;;;7.80;99.90;;;;;;12536112;28;19993;-86
2022/09/22 06:51:13;;;;;;;;;;;7.80;99.90;;;;;;12509015;28;19937;-85
2022/09/22 06:57:16;;;;;;;;;;;7.80;99.90;;;;;;12527979;28;19936;-86
2022/09/22 07:03:21;;;;;;;;;;;7.80;99.90;;;;;;12525694;28;19936;-86
2022/09/22 07:09:23;;;;;;;;;;;7.80;99.90;;;;;;12511546;28;19929;-85
2022/09/22 07:15:24;;;;;;;;;;;7.90;99.90;;;;;;12524305;28;19940;-85
2022/09/22 07:21:34;;;;;;;;;;;7.90;99.90;;;;;;12532494;28;19925;-86
2022/09/22 07:27:35;;;;;;;;;;;8.10;99.90;;;;;;12494823;28;19929;-86
2022/09/22 07:33:38;;;;;;;;;;;8.10;99.90;;;;;;12477765;28;19932;-86
2022/09/22 07:39:40;;;;;;;;;;;8.30;99.90;;;;;;12477687;28;19925;-85
2022/09/22 07:45:41;;;;;;;;;;;8.50;99.90;;;;;;12486423;28;19926;-85
2022/09/22 07:51:43;;;;;;;;;;;8.70;99.90;;;;;;12463379;28;19932;-86
2022/09/22 07:57:51;;;;;;;;;;;8.80;99.90;;;;;;12475266;28;19934;-85
2022/09/22 08:03:56;;;;;;;;;;;9.00;99.90;;;;;;12468870;28;19929;-86
2022/09/22 08:09:57;;;;;;;;;;;9.20;99.90;;;;;;12483744;28;19930;-86
2022/09/22 08:16:00;;;;;;;;;;;9.60;99.90;;;;;;12468241;28;19925;-86
2022/09/22 08:22:01;;;;;;;;;;;9.80;99.90;;;;;;12481072;28;19924;-86
2022/09/22 08:28:03;;;;;;;;;;;10.00;99.90;;;;;;12483333;28;19929;-86
2022/09/22 08:34:05;;;;;;;;;;;10.10;99.90;;;;;;12470034;28;19936;-86
2022/09/22 08:40:14;;;;;;;;;;;10.50;99.90;;;;;;12456060;28;19933;-86
2022/09/22 08:46:15;;;;;;;;;;;10.50;99.90;;;;;;12481125;28;19952;-86
2022/09/22 08:52:24;;;;;;;;;;;11.00;99.90;;;;;;12458351;28;19933;-86
2022/09/22 08:58:42;;;;;;;;;;;11.40;99.90;;;;;;12479390;28;19936;-86
2022/09/22 09:04:59;;;;;;;;;;;11.70;99.90;;;;;;12457809;28;19929;-86
2022/09/22 09:11:19;;;;;;;;;;;11.80;99.90;;;;;;12470880;28;19933;-86
2022/09/22 09:17:29;;;;;;;;;;;12.20;99.90;;;;;;12487735;28;19952;-86
2022/09/22 09:23:51;;;;;;;;;;;12.50;99.90;;;;;;12471635;28;19932;-86
2022/09/22 09:30:17;;;;;;;;;;;12.90;99.90;;;;;;12460742;28;19936;-86
2022/09/22 09:36:21;;;;;;;;;;;13.10;99.90;;;;;;12464378;28;19925;-86
2022/09/22 09:42:25;;;;;;;;;;;13.20;99.90;;;;;;12468222;28;20024;-86
2022/09/22 09:48:40;;;;;;;;;;;13.90;99.90;;;;;;12465174;28;19926;-87
2022/09/22 09:54:43;;;;;;;;;;;14.00;99.90;;;;;;12462985;28;19926;-87
2022/09/22 10:00:56;;;;;;;;;;;14.90;99.90;;;;;;12458014;28;19979;-87
2022/09/22 10:07:17;;;;;;;;;;;15.40;99.90;;;;;;12460681;28;20461;-85
2022/09/22 10:13:21;;;;;;;;;;;15.80;99.90;;;;;;12468671;28;20408;-85
2022/09/22 10:19:31;;;;;;;;;;;16.10;99.90;;;;;;12463865;28;19925;-86
2022/09/22 10:25:32;;;;;;;;;;;16.30;99.90;;;;;;12475270;28;19929;-86
2022/09/22 10:31:38;;;;;;;;;;;16.60;99.90;;;;;;12472241;28;19925;-86
2022/09/22 10:37:40;;;;;;;;;;;16.70;99.90;;;;;;12467080;28;20266;-87
2022/09/22 10:43:55;;;;;;;;;;;16.90;99.90;;;;;;12464533;28;19925;-87
2022/09/22 10:50:14;;;;;;;;;;;17.10;99.90;;;;;;12467050;28;19941;-85
2022/09/22 10:56:33;;;;;;;;;;;17.30;99.90;;;;;;12471737;28;19932;-87
2022/09/22 11:02:54;;;;;;;;;;;17.50;99.90;;;;;;12479872;28;20296;-87
2022/09/22 11:15:38;;;;;;;;;;;17.80;99.90;;;;;;12468694;28;19925;-87
2022/09/22 11:21:51;;;;;;;;;;;17.90;99.90;;;;;;12476887;28;19925;-87
2022/09/22 11:27:55;;;;;;;;;;;18.30;99.90;;;;;;12464808;28;19933;-88
2022/09/22 11:34:03;;;;;;;;;;;18.40;99.90;;;;;;12465784;28;19939;-87
2022/09/22 11:40:15;;;;;;;;;;;18.30;99.90;;;;;;12477362;28;20396;-87
2022/09/22 11:46:21;;;;;;;;;;;18.40;99.90;;;;;;12476400;28;20156;-87
2022/09/22 11:52:25;;;;;;;;;;;18.90;99.90;;;;;;12466321;28;20339;-88
2022/09/22 11:58:28;;;;;;;;;;;18.90;99.90;;;;;;12472293;28;19925;-86
2022/09/22 12:04:36;;;;;;;;;;;19.00;99.90;;;;;;12463348;28;19944;-87
2022/09/22 12:10:45;;;;;;;;;;;18.90;99.90;;;;;;12461334;28;19929;-87
2022/09/22 12:17:13;;;;;;;;;;;18.10;99.90;;;;;;12474940;28;20370;-87
2022/09/22 12:23:17;;;;;;;;;;;18.00;99.90;;;;;;12467969;28;19929;-87
2022/09/22 12:29:22;;;;;;;;;;;17.70;99.90;;;;;;12478566;28;19929;-87
2022/09/22 12:35:28;;;;;;;;;;;17.60;99.90;;;;;;12466947;28;19929;-87
2022/09/22 12:41:31;;;;;;;;;;;18.00;99.90;;;;;;12464008;28;19925;-87
2022/09/22 12:47:35;;;;;;;;;;;17.70;99.90;;;;;;12478767;28;20388;-88
2022/09/22 12:53:36;;;;;;;;;;;17.80;99.90;;;;;;12459930;28;19925;-87
2022/09/22 13:00:05;;;;;;;;;;;18.50;99.90;;;;;;12478252;28;19925;-87
2022/09/22 13:06:36;;;;;;;;;;;18.70;99.90;;;;;;12463766;28;19926;-87
2022/09/22 13:12:37;;;;;;;;;;;17.80;99.90;;;;;;12423832;28;20301;-87
2022/09/22 13:18:42;;;;;;;;;;;17.60;99.90;;;;;;12473738;28;19925;-87
2022/09/22 13:24:44;;;;;;;;;;;17.70;99.90;;;;;;12481894;28;19936;-87
2022/09/22 13:30:47;;;;;;;;;;;17.30;99.90;;;;;;12464177;28;19933;-87
2022/09/22 13:36:50;;;;;;;;;;;16.80;99.90;;;;;;12461600;28;20004;-87
2022/09/22 13:42:53;;;;;;;;;;;16.60;99.90;;;;;;12476747;28;19925;-87
2022/09/22 13:48:56;;;;;;;;;;;16.40;99.90;;;;;;12470048;28;19932;-87
2022/09/22 13:54:59;;;;;;;;;;;16.30;99.90;;;;;;12471118;28;19929;-87
2022/09/22 14:01:01;;;;;;;;;;;16.40;99.90;;;;;;12458183;28;19929;-87
2022/09/22 14:07:14;;;;;;;;;;;16.90;99.90;;;;;;12465942;28;19977;-87
2022/09/22 14:13:34;;;;;;;;;;;16.90;99.90;;;;;;12470360;28;19933;-87
2022/09/22 14:19:37;;;;;;;;;;;16.50;99.90;;;;;;12466599;28;19929;-87
2022/09/22 14:25:39;;;;;;;;;;;16.20;99.90;;;;;;12467991;28;19948;-87
2022/09/22 14:31:44;;;;;;;;;;;16.00;99.90;;;;;;12465212;28;19925;-87
2022/09/22 14:37:47;;;;;;;;;;;15.90;99.90;;;;;;12465145;28;21895;-87
2022/09/22 14:43:49;;;;;;;;;;;15.80;99.90;;;;;;12478080;28;19932;-87
2022/09/22 14:50:11;;;;;;;;;;;15.80;99.90;;;;;;12478613;28;19925;-87
2022/09/22 14:56:27;;;;;;;;;;;15.80;99.90;;;;;;12435784;28;19984;-87
2022/09/22 15:02:31;;;;;;;;;;;15.80;99.90;;;;;;12461353;28;19937;-87
2022/09/22 15:08:33;;;;;;;;;;;15.70;99.90;;;;;;12461072;28;20416;-86
2022/09/22 15:14:42;;;;;;;;;;;15.70;99.90;;;;;;12478586;28;19963;-86
2022/09/22 15:20:43;;;;;;;;;;;15.60;99.90;;;;;;12476386;28;19932;-86
2022/09/22 15:26:45;;;;;;;;;;;15.40;99.90;;;;;;12485047;28;19929;-86
2022/09/22 15:32:47;;;;;;;;;;;15.20;99.90;;;;;;12463138;28;20301;-86
2022/09/22 15:38:58;;;;;;;;;;;15.20;99.90;;;;;;12458588;28;19932;-86
2022/09/22 15:45:03;;;;;;;;;;;15.30;99.90;;;;;;12475480;28;20027;-86
2022/09/22 15:51:07;;;;;;;;;;;16.10;99.90;;;;;;12476333;28;19929;-86
2022/09/22 15:57:09;;;;;;;;;;;16.40;99.90;;;;;;12469679;28;19929;-86
2022/09/22 16:03:12;;;;;;;;;;;16.70;99.90;;;;;;12470142;28;19929;-86
2022/09/22 16:09:15;;;;;;;;;;;16.90;99.90;;;;;;12472694;28;20285;-86
2022/09/22 16:15:17;;;;;;;;;;;17.00;99.90;;;;;;12471413;28;20484;-86
2022/09/22 16:21:21;;;;;;;;;;;17.00;99.90;;;;;;12460939;28;20305;-86
2022/09/22 16:27:23;;;;;;;;;;;16.70;99.90;;;;;;12464118;28;19932;-86
2022/09/22 16:33:24;;;;;;;;;;;16.50;99.90;;;;;;12468299;28;19926;-86
2022/09/22 16:39:26;;;;;;;;;;;16.30;99.90;;;;;;12459849;28;20304;-86
2022/09/22 16:51:49;;;;;;;;;;;15.80;99.90;;;;;;12456160;28;19956;-86
2022/09/22 16:57:53;;;;;;;;;;;15.50;99.90;;;;;;12476619;28;20431;-86
2022/09/22 17:03:55;;;;;;;;;;;15.30;99.90;;;;;;12473213;28;19931;-86
2022/09/22 17:09:56;;;;;;;;;;;15.00;99.90;;;;;;12478133;28;20420;-85
2022/09/22 17:16:06;;;;;;;;;;;14.80;99.90;;;;;;12455424;28;20381;-86
2022/09/22 17:22:08;;;;;;;;;;;14.50;99.90;;;;;;12474737;28;19925;-86
2022/09/22 17:28:10;;;;;;;;;;;14.40;99.90;;;;;;12464575;28;19925;-86
2022/09/22 17:34:11;;;;;;;;;;;14.10;99.90;;;;;;12457774;28;19925;-85
2022/09/22 17:40:13;;;;;;;;;;;13.90;99.90;;;;;;12468823;28;19936;-86
2022/09/22 17:46:15;;;;;;;;;;;13.80;99.90;;;;;;12472292;28;19931;-86
2022/09/22 17:58:34;;;;;;;;;;;13.70;99.90;;;;;;12468478;28;19925;-85
2022/09/22 18:04:36;;;;;;;;;;;13.70;99.90;;;;;;12455228;28;19925;-85
2022/09/22 18:10:38;;;;;;;;;;;13.40;99.90;;;;;;12464979;28;20008;-85
2022/09/22 18:16:40;;;;;;;;;;;13.10;99.90;;;;;;12463060;28;19932;-85
2022/09/22 18:22:46;;;;;;;;;;;13.00;99.90;;;;;;12459956;28;20071;-85
2022/09/22 18:28:51;;;;;;;;;;;12.80;99.90;;;;;;12466060;28;20123;-85
2022/09/22 18:34:54;;;;;;;;;;;12.60;99.90;;;;;;12461687;28;19925;-85
2022/09/22 18:40:55;;;;;;;;;;;12.40;99.90;;;;;;12459955;28;19933;-85
2022/09/22 18:47:02;;;;;;;;;;;12.30;99.90;;;;;;12464509;28;19936;-85
2022/09/22 18:53:04;;;;;;;;;;;12.20;99.90;;;;;;12474378;28;19925;-85
2022/09/22 18:59:08;;;;;;;;;;;12.20;99.90;;;;;;12464033;28;19929;-85
2022/09/22 19:05:09;;;;;;;;;;;12.00;99.90;;;;;;12459937;28;20365;-85
2022/09/22 19:11:13;;;;;;;;;;;12.00;99.90;;;;;;12473855;28;19948;-85
2022/09/22 19:17:16;;;;;;;;;;;11.90;99.90;;;;;;12469060;28;19937;-85
2022/09/22 19:23:17;;;;;;;;;;;11.90;99.90;;;;;;12485975;28;19925;-85
2022/09/22 19:29:19;;;;;;;;;;;11.80;99.90;;;;;;12481390;28;19937;-85
2022/09/22 19:35:21;;;;;;;;;;;11.90;99.90;;;;;;12479026;28;19925;-85
2022/09/22 19:41:25;;;;;;;;;;;12.00;99.90;;;;;;12473305;28;20301;-85
2022/09/22 19:47:27;;;;;;;;;;;12.20;99.90;;;;;;12475548;28;19926;-85
2022/09/22 19:53:29;;;;;;;;;;;12.50;99.90;;;;;;12476303;28;20297;-85
2022/09/22 19:59:30;;;;;;;;;;;12.70;99.90;;;;;;12467353;28;20297;-85
2022/09/22 20:05:35;;;;;;;;;;;12.80;99.90;;;;;;12451725;28;19925;-84
2022/09/22 20:11:41;;;;;;;;;;;13.00;99.90;;;;;;12471724;28;19925;-84
2022/09/22 20:17:44;;;;;;;;;;;13.00;99.90;;;;;;12470614;28;19952;-85
2022/09/22 20:23:46;;;;;;;;;;;13.10;99.90;;;;;;12491184;28;20002;-84
2022/09/22 20:29:49;;;;;;;;;;;13.10;99.90;;;;;;12474960;28;19930;-84
2022/09/22 20:35:56;;;;;;;;;;;13.00;99.90;;;;;;12455074;28;19933;-84
2022/09/22 20:41:58;;;;;;;;;;;13.00;99.90;;;;;;12477990;28;19925;-84
2022/09/22 20:48:00;;;;;;;;;;;13.00;99.90;;;;;;12466747;28;19929;-85
2022/09/22 20:54:02;;;;;;;;;;;13.00;99.90;;;;;;12468546;28;19940;-84
2022/09/22 21:00:03;;;;;;;;;;;12.90;99.90;;;;;;12475193;28;20413;-84
2022/09/22 21:06:06;;;;;;;;;;;12.90;99.90;;;;;;12461897;28;19929;-84
2022/09/22 21:12:08;;;;;;;;;;;13.00;99.90;;;;;;12479754;28;19925;-84
2022/09/22 21:18:10;;;;;;;;;;;13.10;99.90;;;;;;12473924;28;20759;-85
2022/09/22 21:24:11;;;;;;;;;;;13.00;99.90;;;;;;12464808;28;19941;-85
2022/09/22 21:30:13;;;;;;;;;;;12.80;99.90;;;;;;12462509;28;19926;-85
2022/09/22 21:36:16;;;;;;;;;;;12.70;99.90;;;;;;12457548;28;20290;-84
2022/09/22 21:42:18;;;;;;;;;;;12.50;99.90;;;;;;12463751;28;19929;-84
2022/09/22 21:48:20;;;;;;;;;;;12.40;99.90;;;;;;12488467;28;19929;-85
2022/09/22 21:54:22;;;;;;;;;;;12.40;99.90;;;;;;12463504;28;20415;-85
2022/09/22 22:00:23;;;;;;;;;;;12.20;99.90;;;;;;12469693;28;19926;-85
2022/09/22 22:06:45;;;;;;;;;;;12.20;99.90;;;;;;12463886;28;20365;-85
2022/09/22 22:12:46;;;;;;;;;;;12.00;99.90;;;;;;12478387;28;19940;-85
2022/09/22 22:18:48;;;;;;;;;;;12.00;99.90;;;;;;12478282;28;19929;-85
2022/09/22 22:24:50;;;;;;;;;;;11.90;99.90;;;;;;12477049;28;19929;-85
2022/09/22 22:30:52;;;;;;;;;;;11.80;99.90;;;;;;12486438;28;20377;-85
2022/09/22 22:36:54;;;;;;;;;;;11.90;99.90;;;;;;12472140;28;19926;-84
2022/09/22 22:42:55;;;;;;;;;;;11.90;99.90;;;;;;12476260;28;20415;-85
2022/09/22 22:48:57;;;;;;;;;;;11.90;99.90;;;;;;12480689;28;19933;-85
2022/09/22 22:54:59;;;;;;;;;;;11.90;99.90;;;;;;12477261;28;19932;-85
2022/09/22 23:01:03;;;;;;;;;;;11.90;99.90;;;;;;12472005;28;19926;-84
2022/09/22 23:07:04;;;;;;;;;;;11.80;99.90;;;;;;12473038;28;19937;-84
2022/09/22 23:13:06;;;;;;;;;;;11.70;99.90;;;;;;12467822;28;20284;-84
2022/09/22 23:19:10;;;;;;;;;;;11.60;99.90;;;;;;12481106;28;19925;-84
2022/09/22 23:25:13;;;;;;;;;;;11.60;99.90;;;;;;12475285;28;19926;-84
2022/09/22 23:31:16;;;;;;;;;;;11.50;99.90;;;;;;12483983;28;19929;-83
2022/09/22 23:37:18;;;;;;;;;;;11.50;99.90;;;;;;12464053;28;19940;-84
2022/09/22 23:43:21;;;;;;;;;;;11.60;99.90;;;;;;12485913;28;19940;-84
2022/09/22 23:49:23;;;;;;;;;;;11.60;99.90;;;;;;12471666;28;19925;-84
2022/09/22 23:55:25;;;;;;;;;;;11.60;99.90;;;;;;12457691;28;19925;-83
